sensor_id;sensor_type;location;lat;lon;timestamp;temperature;humidity
25108;DHT22;13090;53.422;7.670;2023-02-16T00:01:51;8.60;78.80
25108;DHT22;13090;53.422;7.670;2023-02-16T00:06:54;8.60;78.90
25108;DHT22;13090;53.422;7.670;2023-02-16T00:11:58;8.50;79.00
25108;DHT22;13090;53.422;7.670;2023-02-16T00:17:02;8.40;79.10
25108;DHT22;13090;53.422;7.670;2023-02-16T00:22:06;8.40;79.20
25108;DHT22;13090;53.422;7.670;2023-02-16T00:27:12;8.40;79.20
25108;DHT22;13090;53.422;7.670;2023-02-16T00:32:16;8.40;79.40
25108;DHT22;13090;53.422;7.670;2023-02-16T00:37:19;8.40;79.30
25108;DHT22;13090;53.422;7.670;2023-02-16T00:42:26;8.40;79.20
25108;DHT22;13090;53.422;7.670;2023-02-16T00:47:31;8.40;79.30
25108;DHT22;13090;53.422;7.670;2023-02-16T00:52:36;8.40;79.40
25108;DHT22;13090;53.422;7.670;2023-02-16T00:57:44;8.40;79.40
25108;DHT22;13090;53.422;7.670;2023-02-16T01:02:48;8.30;79.50
25108;DHT22;13090;53.422;7.670;2023-02-16T01:07:51;8.30;79.50
25108;DHT22;13090;53.422;7.670;2023-02-16T01:12:55;8.30;79.50
25108;DHT22;13090;53.422;7.670;2023-02-16T01:17:57;8.30;79.70
25108;DHT22;13090;53.422;7.670;2023-02-16T01:22:59;8.30;79.60
25108;DHT22;13090;53.422;7.670;2023-02-16T01:28:16;8.40;79.60
25108;DHT22;13090;53.422;7.670;2023-02-16T01:33:19;8.30;79.80
25108;DHT22;13090;53.422;7.670;2023-02-16T01:38:24;8.30;79.50
25108;DHT22;13090;53.422;7.670;2023-02-16T01:43:34;8.20;79.40
25108;DHT22;13090;53.422;7.670;2023-02-16T01:48:39;8.20;79.60
25108;DHT22;13090;53.422;7.670;2023-02-16T01:53:45;8.20;79.60
25108;DHT22;13090;53.422;7.670;2023-02-16T01:58:53;8.10;79.60
25108;DHT22;13090;53.422;7.670;2023-02-16T02:04:00;8.10;79.80
25108;DHT22;13090;53.422;7.670;2023-02-16T02:09:06;8.10;79.70
25108;DHT22;13090;53.422;7.670;2023-02-16T02:14:15;8.00;79.90
25108;DHT22;13090;53.422;7.670;2023-02-16T02:19:19;8.00;80.00
25108;DHT22;13090;53.422;7.670;2023-02-16T02:30:22;8.00;80.80
25108;DHT22;13090;53.422;7.670;2023-02-16T02:35:39;7.90;80.60
25108;DHT22;13090;53.422;7.670;2023-02-16T02:40:52;8.00;80.70
25108;DHT22;13090;53.422;7.670;2023-02-16T02:46:02;8.00;80.70
25108;DHT22;13090;53.422;7.670;2023-02-16T02:51:11;8.00;80.70
25108;DHT22;13090;53.422;7.670;2023-02-16T02:56:15;8.10;80.70
25108;DHT22;13090;53.422;7.670;2023-02-16T03:01:23;8.10;80.60
25108;DHT22;13090;53.422;7.670;2023-02-16T03:06:31;8.10;80.50
25108;DHT22;13090;53.422;7.670;2023-02-16T03:11:35;8.00;80.50
25108;DHT22;13090;53.422;7.670;2023-02-16T03:16:41;8.00;80.40
25108;DHT22;13090;53.422;7.670;2023-02-16T03:21:46;8.00;80.40
25108;DHT22;13090;53.422;7.670;2023-02-16T03:26:53;7.90;80.30
25108;DHT22;13090;53.422;7.670;2023-02-16T03:31:58;7.80;80.30
25108;DHT22;13090;53.422;7.670;2023-02-16T03:37:04;7.80;80.40
25108;DHT22;13090;53.422;7.670;2023-02-16T03:42:07;7.70;80.40
25108;DHT22;13090;53.422;7.670;2023-02-16T03:47:14;7.70;80.60
25108;DHT22;13090;53.422;7.670;2023-02-16T03:52:17;7.70;80.80
25108;DHT22;13090;53.422;7.670;2023-02-16T03:57:25;7.60;80.90
25108;DHT22;13090;53.422;7.670;2023-02-16T04:02:32;7.60;80.40
25108;DHT22;13090;53.422;7.670;2023-02-16T04:07:34;7.50;80.70
25108;DHT22;13090;53.422;7.670;2023-02-16T04:12:37;7.50;80.90
25108;DHT22;13090;53.422;7.670;2023-02-16T04:17:41;7.50;81.10
25108;DHT22;13090;53.422;7.670;2023-02-16T04:22:45;7.50;81.20
25108;DHT22;13090;53.422;7.670;2023-02-16T04:27:49;7.60;81.50
25108;DHT22;13090;53.422;7.670;2023-02-16T04:32:54;7.60;81.50
25108;DHT22;13090;53.422;7.670;2023-02-16T04:37:57;7.70;81.70
25108;DHT22;13090;53.422;7.670;2023-02-16T04:42:59;7.70;81.70
25108;DHT22;13090;53.422;7.670;2023-02-16T04:48:04;7.80;81.70
25108;DHT22;13090;53.422;7.670;2023-02-16T04:53:07;7.90;81.90
25108;DHT22;13090;53.422;7.670;2023-02-16T04:58:10;7.90;81.80
25108;DHT22;13090;53.422;7.670;2023-02-16T05:03:17;8.00;81.80
25108;DHT22;13090;53.422;7.670;2023-02-16T05:08:21;8.10;81.80
25108;DHT22;13090;53.422;7.670;2023-02-16T05:13:24;8.10;81.60
25108;DHT22;13090;53.422;7.670;2023-02-16T05:18:29;8.20;81.40
25108;DHT22;13090;53.422;7.670;2023-02-16T05:23:31;8.20;81.60
25108;DHT22;13090;53.422;7.670;2023-02-16T05:28:34;8.20;81.60
25108;DHT22;13090;53.422;7.670;2023-02-16T05:33:38;8.30;81.60
25108;DHT22;13090;53.422;7.670;2023-02-16T05:38:41;8.30;81.70
25108;DHT22;13090;53.422;7.670;2023-02-16T05:43:48;8.40;81.60
25108;DHT22;13090;53.422;7.670;2023-02-16T05:48:53;8.40;81.50
25108;DHT22;13090;53.422;7.670;2023-02-16T05:53:56;8.50;81.60
25108;DHT22;13090;53.422;7.670;2023-02-16T05:59:00;8.50;81.60
25108;DHT22;13090;53.422;7.670;2023-02-16T06:04:04;8.50;81.60
25108;DHT22;13090;53.422;7.670;2023-02-16T06:09:08;8.60;81.70
25108;DHT22;13090;53.422;7.670;2023-02-16T06:14:13;8.60;81.70
25108;DHT22;13090;53.422;7.670;2023-02-16T06:19:18;8.60;81.70
25108;DHT22;13090;53.422;7.670;2023-02-16T06:24:21;8.60;81.80
25108;DHT22;13090;53.422;7.670;2023-02-16T06:29:24;8.70;81.70
25108;DHT22;13090;53.422;7.670;2023-02-16T06:34:28;8.70;81.70
25108;DHT22;13090;53.422;7.670;2023-02-16T06:39:31;8.70;81.70
25108;DHT22;13090;53.422;7.670;2023-02-16T06:44:34;8.80;81.70
25108;DHT22;13090;53.422;7.670;2023-02-16T06:49:38;8.80;81.70
25108;DHT22;13090;53.422;7.670;2023-02-16T06:54:41;8.80;81.80
25108;DHT22;13090;53.422;7.670;2023-02-16T06:59:44;8.80;81.80
25108;DHT22;13090;53.422;7.670;2023-02-16T07:05:02;8.80;81.80
25108;DHT22;13090;53.422;7.670;2023-02-16T07:10:07;8.80;82.20
25108;DHT22;13090;53.422;7.670;2023-02-16T07:15:09;8.80;81.80
25108;DHT22;13090;53.422;7.670;2023-02-16T07:20:17;8.90;81.80
25108;DHT22;13090;53.422;7.670;2023-02-16T07:25:24;8.90;82.10
25108;DHT22;13090;53.422;7.670;2023-02-16T07:30:31;8.90;82.00
25108;DHT22;13090;53.422;7.670;2023-02-16T07:35:43;8.90;82.20
25108;DHT22;13090;53.422;7.670;2023-02-16T07:40:50;9.00;82.20
25108;DHT22;13090;53.422;7.670;2023-02-16T07:46:09;9.00;82.00
25108;DHT22;13090;53.422;7.670;2023-02-16T07:51:20;9.10;82.40
25108;DHT22;13090;53.422;7.670;2023-02-16T07:56:25;9.10;82.10
25108;DHT22;13090;53.422;7.670;2023-02-16T08:01:31;9.20;82.00
25108;DHT22;13090;53.422;7.670;2023-02-16T08:06:36;9.20;82.00
25108;DHT22;13090;53.422;7.670;2023-02-16T08:11:41;9.20;82.00
25108;DHT22;13090;53.422;7.670;2023-02-16T08:16:44;9.30;82.10
25108;DHT22;13090;53.422;7.670;2023-02-16T08:21:55;9.30;82.10
25108;DHT22;13090;53.422;7.670;2023-02-16T08:27:10;9.30;82.20
25108;DHT22;13090;53.422;7.670;2023-02-16T08:44:53;9.60;82.60
25108;DHT22;13090;53.422;7.670;2023-02-16T08:49:56;9.60;82.20
25108;DHT22;13090;53.422;7.670;2023-02-16T08:54:58;9.70;82.40
25108;DHT22;13090;53.422;7.670;2023-02-16T09:00:03;9.70;82.40
25108;DHT22;13090;53.422;7.670;2023-02-16T09:05:06;9.80;82.50
25108;DHT22;13090;53.422;7.670;2023-02-16T09:10:09;9.90;82.50
25108;DHT22;13090;53.422;7.670;2023-02-16T09:15:13;9.90;82.40
25108;DHT22;13090;53.422;7.670;2023-02-16T09:20:16;10.00;82.40
25108;DHT22;13090;53.422;7.670;2023-02-16T09:25:18;10.00;82.30
25108;DHT22;13090;53.422;7.670;2023-02-16T09:30:22;10.00;82.30
25108;DHT22;13090;53.422;7.670;2023-02-16T09:35:25;10.10;82.30
25108;DHT22;13090;53.422;7.670;2023-02-16T09:40:27;10.10;82.30
25108;DHT22;13090;53.422;7.670;2023-02-16T09:45:31;10.20;82.40
25108;DHT22;13090;53.422;7.670;2023-02-16T09:50:40;10.20;82.40
25108;DHT22;13090;53.422;7.670;2023-02-16T09:56:03;10.20;82.30
25108;DHT22;13090;53.422;7.670;2023-02-16T10:01:15;10.30;82.50
25108;DHT22;13090;53.422;7.670;2023-02-16T10:06:32;10.30;82.50
25108;DHT22;13090;53.422;7.670;2023-02-16T10:11:41;10.30;82.80
25108;DHT22;13090;53.422;7.670;2023-02-16T10:16:51;10.30;82.60
25108;DHT22;13090;53.422;7.670;2023-02-16T10:21:58;10.40;82.90
25108;DHT22;13090;53.422;7.670;2023-02-16T10:27:08;10.50;82.90
25108;DHT22;13090;53.422;7.670;2023-02-16T10:32:23;10.60;82.90
25108;DHT22;13090;53.422;7.670;2023-02-16T10:37:39;10.60;82.90
25108;DHT22;13090;53.422;7.670;2023-02-16T10:42:49;10.70;83.00
25108;DHT22;13090;53.422;7.670;2023-02-16T10:47:55;10.70;82.80
25108;DHT22;13090;53.422;7.670;2023-02-16T10:53:00;10.80;82.80
25108;DHT22;13090;53.422;7.670;2023-02-16T10:58:15;10.90;83.00
25108;DHT22;13090;53.422;7.670;2023-02-16T11:03:24;11.00;83.20
25108;DHT22;13090;53.422;7.670;2023-02-16T11:08:46;11.00;83.00
25108;DHT22;13090;53.422;7.670;2023-02-16T11:13:57;11.10;83.30
25108;DHT22;13090;53.422;7.670;2023-02-16T11:19:06;11.10;83.10
25108;DHT22;13090;53.422;7.670;2023-02-16T11:24:11;11.10;82.90
25108;DHT22;13090;53.422;7.670;2023-02-16T11:29:18;11.10;82.90
25108;DHT22;13090;53.422;7.670;2023-02-16T11:34:30;11.10;83.00
25108;DHT22;13090;53.422;7.670;2023-02-16T11:39:36;11.10;83.30
25108;DHT22;13090;53.422;7.670;2023-02-16T11:44:42;11.10;83.20
25108;DHT22;13090;53.422;7.670;2023-02-16T11:49:47;11.20;83.10
25108;DHT22;13090;53.422;7.670;2023-02-16T11:54:51;11.20;82.90
25108;DHT22;13090;53.422;7.670;2023-02-16T11:59:55;11.20;83.00
25108;DHT22;13090;53.422;7.670;2023-02-16T12:05:13;11.20;83.10
25108;DHT22;13090;53.422;7.670;2023-02-16T12:10:23;11.20;83.30
25108;DHT22;13090;53.422;7.670;2023-02-16T12:15:34;11.30;83.20
25108;DHT22;13090;53.422;7.670;2023-02-16T12:20:47;11.30;83.40
25108;DHT22;13090;53.422;7.670;2023-02-16T12:26:02;11.30;84.50
25108;DHT22;13090;53.422;7.670;2023-02-16T12:31:14;11.40;83.60
25108;DHT22;13090;53.422;7.670;2023-02-16T12:36:41;11.40;83.50
25108;DHT22;13090;53.422;7.670;2023-02-16T12:41:56;11.50;84.00
25108;DHT22;13090;53.422;7.670;2023-02-16T12:47:04;11.60;83.80
25108;DHT22;13090;53.422;7.670;2023-02-16T12:52:22;11.70;83.90
25108;DHT22;13090;53.422;7.670;2023-02-16T12:57:31;11.80;83.50
25108;DHT22;13090;53.422;7.670;2023-02-16T13:02:37;11.80;83.30
25108;DHT22;13090;53.422;7.670;2023-02-16T13:07:43;11.70;83.30
25108;DHT22;13090;53.422;7.670;2023-02-16T13:12:49;11.70;83.30
25108;DHT22;13090;53.422;7.670;2023-02-16T13:17:55;11.70;83.60
25108;DHT22;13090;53.422;7.670;2023-02-16T13:23:22;11.60;83.60
25108;DHT22;13090;53.422;7.670;2023-02-16T13:28:39;11.60;84.00
25108;DHT22;13090;53.422;7.670;2023-02-16T13:34:10;11.60;83.80
25108;DHT22;13090;53.422;7.670;2023-02-16T13:39:46;11.50;83.90
25108;DHT22;13090;53.422;7.670;2023-02-16T13:44:55;11.50;84.30
25108;DHT22;13090;53.422;7.670;2023-02-16T13:50:01;11.50;84.00
25108;DHT22;13090;53.422;7.670;2023-02-16T13:55:22;11.50;84.20
25108;DHT22;13090;53.422;7.670;2023-02-16T14:00:27;11.50;84.50
25108;DHT22;13090;53.422;7.670;2023-02-16T14:05:36;11.50;84.40
25108;DHT22;13090;53.422;7.670;2023-02-16T14:11:05;11.50;84.60
25108;DHT22;13090;53.422;7.670;2023-02-16T14:16:09;11.50;85.10
25108;DHT22;13090;53.422;7.670;2023-02-16T14:21:19;11.60;84.80
25108;DHT22;13090;53.422;7.670;2023-02-16T14:26:27;11.60;85.00
25108;DHT22;13090;53.422;7.670;2023-02-16T14:31:31;11.70;84.90
25108;DHT22;13090;53.422;7.670;2023-02-16T14:37:08;11.80;84.70
25108;DHT22;13090;53.422;7.670;2023-02-16T14:42:24;11.80;85.00
25108;DHT22;13090;53.422;7.670;2023-02-16T14:47:35;11.90;84.70
25108;DHT22;13090;53.422;7.670;2023-02-16T14:58:21;12.00;84.40
25108;DHT22;13090;53.422;7.670;2023-02-16T15:03:45;12.00;84.40
25108;DHT22;13090;53.422;7.670;2023-02-16T15:08:53;11.90;84.10
25108;DHT22;13090;53.422;7.670;2023-02-16T15:14:06;11.90;84.10
25108;DHT22;13090;53.422;7.670;2023-02-16T15:19:25;11.90;84.10
25108;DHT22;13090;53.422;7.670;2023-02-16T15:25:10;11.80;84.00
25108;DHT22;13090;53.422;7.670;2023-02-16T15:30:33;11.80;84.50
25108;DHT22;13090;53.422;7.670;2023-02-16T15:35:54;11.70;84.40
25108;DHT22;13090;53.422;7.670;2023-02-16T15:41:14;11.70;84.20
25108;DHT22;13090;53.422;7.670;2023-02-16T16:11:28;11.40;84.90
25108;DHT22;13090;53.422;7.670;2023-02-16T16:16:53;11.30;84.80
25108;DHT22;13090;53.422;7.670;2023-02-16T16:22:37;11.20;84.80
25108;DHT22;13090;53.422;7.670;2023-02-16T16:28:31;11.10;85.60
25108;DHT22;13090;53.422;7.670;2023-02-16T16:33:54;11.00;85.60
25108;DHT22;13090;53.422;7.670;2023-02-16T16:39:40;10.90;86.10
25108;DHT22;13090;53.422;7.670;2023-02-16T16:45:33;10.90;86.50
25108;DHT22;13090;53.422;7.670;2023-02-16T16:50:42;10.80;86.40
25108;DHT22;13090;53.422;7.670;2023-02-16T17:01:49;10.70;86.70
25108;DHT22;13090;53.422;7.670;2023-02-16T17:06:52;10.60;86.30
25108;DHT22;13090;53.422;7.670;2023-02-16T17:11:54;10.70;86.40
25108;DHT22;13090;53.422;7.670;2023-02-16T17:16:58;10.60;86.50
25108;DHT22;13090;53.422;7.670;2023-02-16T17:22:00;10.60;86.70
25108;DHT22;13090;53.422;7.670;2023-02-16T17:27:03;10.60;86.80
25108;DHT22;13090;53.422;7.670;2023-02-16T17:32:06;10.50;86.90
25108;DHT22;13090;53.422;7.670;2023-02-16T17:37:09;10.50;87.40
25108;DHT22;13090;53.422;7.670;2023-02-16T17:42:12;10.40;87.40
25108;DHT22;13090;53.422;7.670;2023-02-16T17:47:16;10.40;87.70
25108;DHT22;13090;53.422;7.670;2023-02-16T17:52:19;10.40;88.20
25108;DHT22;13090;53.422;7.670;2023-02-16T17:57:21;10.30;88.20
25108;DHT22;13090;53.422;7.670;2023-02-16T18:02:25;10.30;88.60
25108;DHT22;13090;53.422;7.670;2023-02-16T18:07:27;10.30;88.70
25108;DHT22;13090;53.422;7.670;2023-02-16T18:12:30;10.30;88.80
25108;DHT22;13090;53.422;7.670;2023-02-16T18:17:33;10.30;89.10
25108;DHT22;13090;53.422;7.670;2023-02-16T18:22:36;10.30;89.20
25108;DHT22;13090;53.422;7.670;2023-02-16T18:27:38;10.40;89.40
25108;DHT22;13090;53.422;7.670;2023-02-16T18:32:42;10.40;89.40
25108;DHT22;13090;53.422;7.670;2023-02-16T18:37:45;10.40;89.50
25108;DHT22;13090;53.422;7.670;2023-02-16T18:42:48;10.40;89.60
25108;DHT22;13090;53.422;7.670;2023-02-16T18:47:52;10.40;89.50
25108;DHT22;13090;53.422;7.670;2023-02-16T18:52:54;10.40;89.80
25108;DHT22;13090;53.422;7.670;2023-02-16T18:57:57;10.40;89.80
25108;DHT22;13090;53.422;7.670;2023-02-16T19:03:00;10.40;89.80
25108;DHT22;13090;53.422;7.670;2023-02-16T19:08:03;10.40;89.90
25108;DHT22;13090;53.422;7.670;2023-02-16T19:13:05;10.40;89.80
25108;DHT22;13090;53.422;7.670;2023-02-16T19:18:09;10.50;89.90
25108;DHT22;13090;53.422;7.670;2023-02-16T19:23:11;10.40;89.80
25108;DHT22;13090;53.422;7.670;2023-02-16T19:28:16;10.50;89.90
25108;DHT22;13090;53.422;7.670;2023-02-16T19:33:23;10.50;90.00
25108;DHT22;13090;53.422;7.670;2023-02-16T19:38:26;10.50;90.10
25108;DHT22;13090;53.422;7.670;2023-02-16T19:43:33;10.50;90.00
25108;DHT22;13090;53.422;7.670;2023-02-16T19:48:39;10.60;90.00
25108;DHT22;13090;53.422;7.670;2023-02-16T19:53:44;10.60;90.10
25108;DHT22;13090;53.422;7.670;2023-02-16T19:58:49;10.60;90.10
25108;DHT22;13090;53.422;7.670;2023-02-16T20:03:55;10.70;90.10
25108;DHT22;13090;53.422;7.670;2023-02-16T20:08:58;10.70;90.30
25108;DHT22;13090;53.422;7.670;2023-02-16T20:14:02;10.80;90.20
25108;DHT22;13090;53.422;7.670;2023-02-16T20:19:06;10.90;90.20
25108;DHT22;13090;53.422;7.670;2023-02-16T20:24:09;10.90;90.30
25108;DHT22;13090;53.422;7.670;2023-02-16T20:29:13;10.90;90.30
25108;DHT22;13090;53.422;7.670;2023-02-16T20:34:17;11.00;90.40
25108;DHT22;13090;53.422;7.670;2023-02-16T20:39:21;11.00;90.40
25108;DHT22;13090;53.422;7.670;2023-02-16T20:44:23;11.10;90.50
25108;DHT22;13090;53.422;7.670;2023-02-16T20:49:27;11.10;90.40
25108;DHT22;13090;53.422;7.670;2023-02-16T20:54:30;11.20;90.40
25108;DHT22;13090;53.422;7.670;2023-02-16T20:59:32;11.20;90.50
25108;DHT22;13090;53.422;7.670;2023-02-16T21:04:36;11.20;90.40
25108;DHT22;13090;53.422;7.670;2023-02-16T21:09:38;11.20;90.50
25108;DHT22;13090;53.422;7.670;2023-02-16T21:14:41;11.30;90.60
25108;DHT22;13090;53.422;7.670;2023-02-16T21:19:45;11.30;90.60
25108;DHT22;13090;53.422;7.670;2023-02-16T21:24:47;11.40;90.80
25108;DHT22;13090;53.422;7.670;2023-02-16T21:29:49;11.40;90.70
25108;DHT22;13090;53.422;7.670;2023-02-16T21:34:53;11.40;90.60
25108;DHT22;13090;53.422;7.670;2023-02-16T21:39:56;11.50;90.70
25108;DHT22;13090;53.422;7.670;2023-02-16T21:44:58;11.50;90.60
25108;DHT22;13090;53.422;7.670;2023-02-16T21:50:02;11.50;90.60
25108;DHT22;13090;53.422;7.670;2023-02-16T21:55:05;11.50;90.70
25108;DHT22;13090;53.422;7.670;2023-02-16T22:00:12;11.60;90.60
25108;DHT22;13090;53.422;7.670;2023-02-16T22:05:16;11.60;90.70
25108;DHT22;13090;53.422;7.670;2023-02-16T22:10:18;11.60;90.50
25108;DHT22;13090;53.422;7.670;2023-02-16T22:15:21;11.60;90.50
25108;DHT22;13090;53.422;7.670;2023-02-16T22:20:25;11.70;90.50
25108;DHT22;13090;53.422;7.670;2023-02-16T22:25:28;11.70;90.60
25108;DHT22;13090;53.422;7.670;2023-02-16T22:30:30;11.70;90.60
25108;DHT22;13090;53.422;7.670;2023-02-16T22:35:34;11.70;90.60
25108;DHT22;13090;53.422;7.670;2023-02-16T22:40:36;11.70;90.60
25108;DHT22;13090;53.422;7.670;2023-02-16T22:45:38;11.70;90.60
25108;DHT22;13090;53.422;7.670;2023-02-16T22:50:42;11.70;90.60
25108;DHT22;13090;53.422;7.670;2023-02-16T22:55:45;11.70;90.70
25108;DHT22;13090;53.422;7.670;2023-02-16T23:00:48;11.80;90.70
25108;DHT22;13090;53.422;7.670;2023-02-16T23:05:53;11.80;90.70
25108;DHT22;13090;53.422;7.670;2023-02-16T23:10:55;11.80;90.70
25108;DHT22;13090;53.422;7.670;2023-02-16T23:16:02;11.80;90.70
25108;DHT22;13090;53.422;7.670;2023-02-16T23:21:09;11.80;90.80
25108;DHT22;13090;53.422;7.670;2023-02-16T23:26:12;11.80;90.80
25108;DHT22;13090;53.422;7.670;2023-02-16T23:31:14;11.80;90.80
25108;DHT22;13090;53.422;7.670;2023-02-16T23:36:18;11.80;90.80
25108;DHT22;13090;53.422;7.670;2023-02-16T23:41:21;11.80;90.80
25108;DHT22;13090;53.422;7.670;2023-02-16T23:46:24;11.90;90.80
25108;DHT22;13090;53.422;7.670;2023-02-16T23:51:28;11.90;90.90
25108;DHT22;13090;53.422;7.670;2023-02-16T23:56:30;11.90;90.90
